sensor_id;sensor_type;location;lat;lon;timestamp;pressure;altitude;pressure_sealevel;temperature;humidity
50774;BME280;36745;48.544;8.918;2022-07-18T00:00:07;98104.69;;;14.49;52.63
50774;BME280;36745;48.544;8.918;2022-07-18T00:03:08;98104.06;;;14.45;52.28
50774;BME280;36745;48.544;8.918;2022-07-18T00:06:09;98098.47;;;14.36;53.80
50774;BME280;36745;48.544;8.918;2022-07-18T00:09:09;98098.41;;;14.27;53.57
50774;BME280;36745;48.544;8.918;2022-07-18T00:12:10;98097.53;;;14.18;54.12
50774;BME280;36745;48.544;8.918;2022-07-18T00:15:11;98099.25;;;14.15;54.27
50774;BME280;36745;48.544;8.918;2022-07-18T00:18:11;98103.09;;;14.18;54.00
50774;BME280;36745;48.544;8.918;2022-07-18T00:21:12;98107.56;;;14.15;54.36
50774;BME280;36745;48.544;8.918;2022-07-18T00:24:12;98099.50;;;14.08;54.15
50774;BME280;36745;48.544;8.918;2022-07-18T00:27:12;98107.63;;;14.02;54.73
50774;BME280;36745;48.544;8.918;2022-07-18T00:30:13;98110.19;;;13.97;54.26
50774;BME280;36745;48.544;8.918;2022-07-18T00:33:14;98109.88;;;13.95;54.82
50774;BME280;36745;48.544;8.918;2022-07-18T00:36:14;98101.66;;;13.91;54.87
50774;BME280;36745;48.544;8.918;2022-07-18T00:39:15;98109.56;;;13.93;54.48
50774;BME280;36745;48.544;8.918;2022-07-18T00:42:15;98110.56;;;13.86;54.57
50774;BME280;36745;48.544;8.918;2022-07-18T00:45:16;98107.34;;;13.88;53.98
50774;BME280;36745;48.544;8.918;2022-07-18T00:48:16;98097.72;;;13.80;54.35
50774;BME280;36745;48.544;8.918;2022-07-18T00:51:17;98100.47;;;13.80;54.50
50774;BME280;36745;48.544;8.918;2022-07-18T00:54:17;98103.94;;;13.84;54.37
50774;BME280;36745;48.544;8.918;2022-07-18T00:57:18;98096.63;;;13.77;55.00
50774;BME280;36745;48.544;8.918;2022-07-18T01:00:18;98095.50;;;13.75;55.23
50774;BME280;36745;48.544;8.918;2022-07-18T01:03:42;98097.88;;;13.63;55.61
50774;BME280;36745;48.544;8.918;2022-07-18T01:06:44;98099.44;;;13.64;54.67
50774;BME280;36745;48.544;8.918;2022-07-18T01:09:45;98099.44;;;13.64;54.47
50774;BME280;36745;48.544;8.918;2022-07-18T01:12:46;98096.16;;;13.44;55.26
50774;BME280;36745;48.544;8.918;2022-07-18T01:15:47;98095.69;;;13.33;55.65
50774;BME280;36745;48.544;8.918;2022-07-18T01:18:49;98096.59;;;13.30;56.05
50774;BME280;36745;48.544;8.918;2022-07-18T01:21:49;98099.38;;;13.17;56.25
50774;BME280;36745;48.544;8.918;2022-07-18T01:24:50;98097.03;;;13.16;56.32
50774;BME280;36745;48.544;8.918;2022-07-18T01:27:50;98106.81;;;13.08;56.76
50774;BME280;36745;48.544;8.918;2022-07-18T01:30:51;98086.63;;;12.95;57.22
50774;BME280;36745;48.544;8.918;2022-07-18T01:33:54;98094.84;;;12.85;57.20
50774;BME280;36745;48.544;8.918;2022-07-18T01:36:54;98103.72;;;12.80;57.70
50774;BME280;36745;48.544;8.918;2022-07-18T01:39:55;98096.06;;;12.84;57.73
50774;BME280;36745;48.544;8.918;2022-07-18T01:42:55;98097.72;;;12.95;56.89
50774;BME280;36745;48.544;8.918;2022-07-18T01:45:56;98097.84;;;12.91;57.16
50774;BME280;36745;48.544;8.918;2022-07-18T01:48:57;98105.50;;;12.87;58.14
50774;BME280;36745;48.544;8.918;2022-07-18T01:51:58;98106.16;;;12.78;57.88
50774;BME280;36745;48.544;8.918;2022-07-18T01:54:59;98103.28;;;12.69;58.33
50774;BME280;36745;48.544;8.918;2022-07-18T01:58:00;98101.06;;;12.64;57.97
50774;BME280;36745;48.544;8.918;2022-07-18T02:01:00;98108.16;;;12.65;58.31
50774;BME280;36745;48.544;8.918;2022-07-18T02:04:01;98105.22;;;12.56;58.24
50774;BME280;36745;48.544;8.918;2022-07-18T02:07:01;98105.47;;;12.49;58.75
50774;BME280;36745;48.544;8.918;2022-07-18T02:10:06;98103.78;;;12.52;58.69
50774;BME280;36745;48.544;8.918;2022-07-18T02:13:06;98101.25;;;12.57;58.33
50774;BME280;36745;48.544;8.918;2022-07-18T02:16:07;98101.56;;;12.47;58.43
50774;BME280;36745;48.544;8.918;2022-07-18T02:19:07;98103.63;;;12.30;58.91
50774;BME280;36745;48.544;8.918;2022-07-18T02:22:08;98097.63;;;12.19;59.79
50774;BME280;36745;48.544;8.918;2022-07-18T02:25:09;98100.94;;;12.14;60.41
50774;BME280;36745;48.544;8.918;2022-07-18T02:28:09;98099.19;;;12.20;59.44
50774;BME280;36745;48.544;8.918;2022-07-18T02:31:10;98103.38;;;12.12;60.07
50774;BME280;36745;48.544;8.918;2022-07-18T02:34:10;98101.09;;;12.07;59.72
50774;BME280;36745;48.544;8.918;2022-07-18T02:37:11;98104.31;;;12.05;59.74
50774;BME280;36745;48.544;8.918;2022-07-18T02:40:11;98115.69;;;11.94;60.46
50774;BME280;36745;48.544;8.918;2022-07-18T02:43:12;98107.41;;;12.07;59.49
50774;BME280;36745;48.544;8.918;2022-07-18T02:46:13;98112.03;;;11.97;59.73
50774;BME280;36745;48.544;8.918;2022-07-18T02:49:13;98112.13;;;11.94;59.70
50774;BME280;36745;48.544;8.918;2022-07-18T02:52:30;98110.50;;;11.80;60.49
50774;BME280;36745;48.544;8.918;2022-07-18T02:55:30;98112.50;;;11.80;60.55
50774;BME280;36745;48.544;8.918;2022-07-18T02:58:31;98119.72;;;11.61;61.07
50774;BME280;36745;48.544;8.918;2022-07-18T03:01:32;98117.22;;;11.67;60.87
50774;BME280;36745;48.544;8.918;2022-07-18T03:04:32;98105.47;;;11.63;61.04
50774;BME280;36745;48.544;8.918;2022-07-18T03:07:33;98116.25;;;11.73;61.11
50774;BME280;36745;48.544;8.918;2022-07-18T03:10:33;98114.69;;;11.72;60.40
50774;BME280;36745;48.544;8.918;2022-07-18T03:13:34;98115.91;;;11.55;62.28
50774;BME280;36745;48.544;8.918;2022-07-18T03:16:34;98124.56;;;11.57;61.31
50774;BME280;36745;48.544;8.918;2022-07-18T03:19:35;98118.53;;;11.46;61.49
50774;BME280;36745;48.544;8.918;2022-07-18T03:22:36;98113.69;;;11.50;61.86
50774;BME280;36745;48.544;8.918;2022-07-18T03:25:36;98119.03;;;11.57;60.86
50774;BME280;36745;48.544;8.918;2022-07-18T03:28:36;98119.38;;;11.43;61.34
50774;BME280;36745;48.544;8.918;2022-07-18T03:31:37;98114.72;;;11.40;62.04
50774;BME280;36745;48.544;8.918;2022-07-18T03:34:38;98114.81;;;11.36;62.17
50774;BME280;36745;48.544;8.918;2022-07-18T03:37:38;98121.88;;;11.37;62.07
50774;BME280;36745;48.544;8.918;2022-07-18T03:40:38;98122.25;;;11.23;62.23
50774;BME280;36745;48.544;8.918;2022-07-18T03:43:39;98124.38;;;11.15;62.23
50774;BME280;36745;48.544;8.918;2022-07-18T03:46:40;98128.56;;;11.24;62.34
50774;BME280;36745;48.544;8.918;2022-07-18T03:49:40;98129.41;;;11.20;63.12
50774;BME280;36745;48.544;8.918;2022-07-18T03:52:40;98127.09;;;11.19;62.70
50774;BME280;36745;48.544;8.918;2022-07-18T03:55:41;98129.22;;;11.11;62.80
50774;BME280;36745;48.544;8.918;2022-07-18T03:58:42;98120.53;;;11.13;62.80
50774;BME280;36745;48.544;8.918;2022-07-18T04:01:42;98122.16;;;11.10;63.29
50774;BME280;36745;48.544;8.918;2022-07-18T04:04:42;98121.72;;;11.12;62.79
50774;BME280;36745;48.544;8.918;2022-07-18T04:07:43;98120.25;;;11.07;63.38
50774;BME280;36745;48.544;8.918;2022-07-18T04:10:44;98123.44;;;11.06;63.99
50774;BME280;36745;48.544;8.918;2022-07-18T04:13:44;98119.38;;;11.10;63.50
50774;BME280;36745;48.544;8.918;2022-07-18T04:16:45;98119.38;;;11.10;63.95
50774;BME280;36745;48.544;8.918;2022-07-18T04:19:46;98125.25;;;11.12;63.78
50774;BME280;36745;48.544;8.918;2022-07-18T04:25:49;98123.34;;;11.26;63.59
50774;BME280;36745;48.544;8.918;2022-07-18T04:28:50;98121.63;;;11.32;63.54
50774;BME280;36745;48.544;8.918;2022-07-18T04:31:50;98122.94;;;11.27;63.96
50774;BME280;36745;48.544;8.918;2022-07-18T04:34:51;98121.47;;;11.23;64.36
50774;BME280;36745;48.544;8.918;2022-07-18T04:37:51;98118.59;;;11.26;63.98
50774;BME280;36745;48.544;8.918;2022-07-18T04:40:52;98108.81;;;11.54;63.33
50774;BME280;36745;48.544;8.918;2022-07-18T04:43:52;98115.22;;;11.96;63.22
50774;BME280;36745;48.544;8.918;2022-07-18T04:46:54;98118.06;;;12.50;62.82
50774;BME280;36745;48.544;8.918;2022-07-18T04:49:54;98111.69;;;13.04;62.09
50774;BME280;36745;48.544;8.918;2022-07-18T04:52:56;98113.13;;;13.46;61.38
50774;BME280;36745;48.544;8.918;2022-07-18T04:55:57;98120.25;;;13.82;61.18
50774;BME280;36745;48.544;8.918;2022-07-18T04:58:58;98107.88;;;14.17;60.62
50774;BME280;36745;48.544;8.918;2022-07-18T05:01:58;98116.56;;;14.63;60.15
50774;BME280;36745;48.544;8.918;2022-07-18T05:04:59;98118.47;;;15.06;59.79
50774;BME280;36745;48.544;8.918;2022-07-18T05:07:59;98128.03;;;15.54;59.30
50774;BME280;36745;48.544;8.918;2022-07-18T05:11:00;98120.53;;;15.91;58.64
50774;BME280;36745;48.544;8.918;2022-07-18T05:14:01;98124.72;;;16.32;58.08
50774;BME280;36745;48.544;8.918;2022-07-18T05:17:07;98117.56;;;16.67;57.57
50774;BME280;36745;48.544;8.918;2022-07-18T05:20:33;98116.84;;;16.99;56.09
50774;BME280;36745;48.544;8.918;2022-07-18T05:23:39;98108.00;;;17.34;56.01
50774;BME280;36745;48.544;8.918;2022-07-18T05:26:43;98111.25;;;17.65;55.17
50774;BME280;36745;48.544;8.918;2022-07-18T05:29:44;98106.41;;;17.90;54.20
50774;BME280;36745;48.544;8.918;2022-07-18T05:32:45;98105.53;;;18.22;54.32
50774;BME280;36745;48.544;8.918;2022-07-18T05:35:45;98101.56;;;18.67;53.73
50774;BME280;36745;48.544;8.918;2022-07-18T05:38:45;98101.47;;;18.91;53.34
50774;BME280;36745;48.544;8.918;2022-07-18T05:41:46;98109.09;;;18.90;52.66
50774;BME280;36745;48.544;8.918;2022-07-18T05:45:23;98106.69;;;18.68;52.26
50774;BME280;36745;48.544;8.918;2022-07-18T05:48:29;98115.66;;;18.58;51.15
50774;BME280;36745;48.544;8.918;2022-07-18T05:51:32;98126.53;;;18.56;50.87
50774;BME280;36745;48.544;8.918;2022-07-18T05:54:33;98109.38;;;18.63;50.45
50774;BME280;36745;48.544;8.918;2022-07-18T05:57:34;98113.81;;;18.69;49.99
50774;BME280;36745;48.544;8.918;2022-07-18T06:00:35;98116.59;;;18.84;49.43
50774;BME280;36745;48.544;8.918;2022-07-18T06:03:35;98105.50;;;18.90;49.60
50774;BME280;36745;48.544;8.918;2022-07-18T06:06:36;98105.13;;;18.97;49.02
50774;BME280;36745;48.544;8.918;2022-07-18T06:09:37;98110.31;;;19.04;48.89
50774;BME280;36745;48.544;8.918;2022-07-18T06:12:37;98117.41;;;19.20;48.65
50774;BME280;36745;48.544;8.918;2022-07-18T06:15:38;98112.78;;;19.31;48.78
50774;BME280;36745;48.544;8.918;2022-07-18T06:18:38;98109.47;;;19.47;48.19
50774;BME280;36745;48.544;8.918;2022-07-18T06:21:39;98109.88;;;19.40;48.19
50774;BME280;36745;48.544;8.918;2022-07-18T06:24:39;98112.75;;;19.46;48.02
50774;BME280;36745;48.544;8.918;2022-07-18T06:27:40;98110.75;;;19.67;48.20
50774;BME280;36745;48.544;8.918;2022-07-18T06:30:40;98107.25;;;19.72;47.63
50774;BME280;36745;48.544;8.918;2022-07-18T06:33:41;98097.59;;;19.93;48.26
50774;BME280;36745;48.544;8.918;2022-07-18T06:36:41;98093.94;;;20.07;47.42
50774;BME280;36745;48.544;8.918;2022-07-18T06:39:42;98093.78;;;20.16;47.12
50774;BME280;36745;48.544;8.918;2022-07-18T06:42:42;98097.19;;;20.20;46.86
50774;BME280;36745;48.544;8.918;2022-07-18T06:45:43;98102.31;;;20.27;46.38
50774;BME280;36745;48.544;8.918;2022-07-18T06:48:43;98093.59;;;20.46;47.28
50774;BME280;36745;48.544;8.918;2022-07-18T06:51:44;98096.81;;;20.59;46.80
50774;BME280;36745;48.544;8.918;2022-07-18T06:54:44;98099.44;;;20.68;46.29
50774;BME280;36745;48.544;8.918;2022-07-18T06:57:45;98089.84;;;20.80;46.67
50774;BME280;36745;48.544;8.918;2022-07-18T07:00:45;98092.97;;;20.88;46.02
50774;BME280;36745;48.544;8.918;2022-07-18T07:03:47;98088.88;;;20.89;45.53
50774;BME280;36745;48.544;8.918;2022-07-18T07:06:48;98090.06;;;21.02;45.62
50774;BME280;36745;48.544;8.918;2022-07-18T07:09:48;98091.78;;;21.31;45.95
50774;BME280;36745;48.544;8.918;2022-07-18T07:12:50;98094.44;;;21.51;44.92
50774;BME280;36745;48.544;8.918;2022-07-18T07:15:51;98096.06;;;21.64;44.75
50774;BME280;36745;48.544;8.918;2022-07-18T07:18:51;98098.00;;;21.83;44.79
50774;BME280;36745;48.544;8.918;2022-07-18T07:21:51;98084.75;;;22.00;44.21
50774;BME280;36745;48.544;8.918;2022-07-18T07:24:52;98085.03;;;22.08;43.88
50774;BME280;36745;48.544;8.918;2022-07-18T07:27:53;98088.91;;;22.22;43.26
50774;BME280;36745;48.544;8.918;2022-07-18T07:30:54;98085.63;;;22.34;42.84
50774;BME280;36745;48.544;8.918;2022-07-18T07:33:54;98081.06;;;22.54;42.99
50774;BME280;36745;48.544;8.918;2022-07-18T07:36:54;98079.31;;;22.78;43.07
50774;BME280;36745;48.544;8.918;2022-07-18T07:39:56;98078.28;;;22.81;41.90
50774;BME280;36745;48.544;8.918;2022-07-18T07:43:14;98083.91;;;22.81;41.46
50774;BME280;36745;48.544;8.918;2022-07-18T07:46:15;98079.81;;;22.94;40.78
50774;BME280;36745;48.544;8.918;2022-07-18T07:49:15;98076.72;;;23.03;41.60
50774;BME280;36745;48.544;8.918;2022-07-18T07:52:16;98085.19;;;23.25;41.29
50774;BME280;36745;48.544;8.918;2022-07-18T07:55:17;98072.63;;;23.43;41.06
50774;BME280;36745;48.544;8.918;2022-07-18T07:58:18;98079.78;;;23.49;40.80
50774;BME280;36745;48.544;8.918;2022-07-18T08:01:21;98071.84;;;23.42;38.64
50774;BME280;36745;48.544;8.918;2022-07-18T08:04:22;98073.66;;;23.45;39.21
50774;BME280;36745;48.544;8.918;2022-07-18T08:07:25;98066.66;;;23.63;39.38
50774;BME280;36745;48.544;8.918;2022-07-18T08:10:26;98065.59;;;23.83;39.37
50774;BME280;36745;48.544;8.918;2022-07-18T08:13:26;98048.84;;;24.01;38.98
50774;BME280;36745;48.544;8.918;2022-07-18T08:16:27;98058.25;;;24.21;38.57
50774;BME280;36745;48.544;8.918;2022-07-18T08:19:27;98049.81;;;24.15;37.41
50774;BME280;36745;48.544;8.918;2022-07-18T08:22:28;98043.13;;;24.18;36.74
50774;BME280;36745;48.544;8.918;2022-07-18T08:25:29;98040.59;;;24.09;35.73
50774;BME280;36745;48.544;8.918;2022-07-18T08:28:30;98034.38;;;24.16;35.99
50774;BME280;36745;48.544;8.918;2022-07-18T08:31:31;98044.50;;;24.41;35.73
50774;BME280;36745;48.544;8.918;2022-07-18T08:34:32;98035.28;;;24.76;36.10
50774;BME280;36745;48.544;8.918;2022-07-18T08:37:32;98039.09;;;25.09;36.37
50774;BME280;36745;48.544;8.918;2022-07-18T08:40:33;98036.13;;;25.25;35.54
50774;BME280;36745;48.544;8.918;2022-07-18T08:43:35;98035.78;;;25.35;35.07
50774;BME280;36745;48.544;8.918;2022-07-18T08:46:36;98039.56;;;25.43;34.70
50774;BME280;36745;48.544;8.918;2022-07-18T08:49:39;98038.97;;;25.50;34.17
50774;BME280;36745;48.544;8.918;2022-07-18T08:52:39;98041.13;;;25.62;34.39
50774;BME280;36745;48.544;8.918;2022-07-18T08:55:40;98041.06;;;25.92;34.26
50774;BME280;36745;48.544;8.918;2022-07-18T08:58:40;98027.59;;;26.17;34.38
50774;BME280;36745;48.544;8.918;2022-07-18T09:01:41;98030.25;;;26.28;33.75
50774;BME280;36745;48.544;8.918;2022-07-18T09:04:43;98031.09;;;26.23;32.94
50774;BME280;36745;48.544;8.918;2022-07-18T09:07:44;98026.81;;;26.54;33.63
50774;BME280;36745;48.544;8.918;2022-07-18T09:10:54;98022.94;;;26.70;32.54
50774;BME280;36745;48.544;8.918;2022-07-18T09:13:55;98026.88;;;26.80;32.98
50774;BME280;36745;48.544;8.918;2022-07-18T09:17:24;98038.75;;;27.11;33.04
50774;BME280;36745;48.544;8.918;2022-07-18T09:20:25;98027.25;;;27.22;32.24
50774;BME280;36745;48.544;8.918;2022-07-18T09:23:30;98029.56;;;27.05;31.45
50774;BME280;36745;48.544;8.918;2022-07-18T09:26:37;98026.81;;;27.18;31.94
50774;BME280;36745;48.544;8.918;2022-07-18T09:29:38;98023.31;;;27.38;31.35
50774;BME280;36745;48.544;8.918;2022-07-18T09:32:40;98024.38;;;27.61;31.02
50774;BME280;36745;48.544;8.918;2022-07-18T09:35:46;98024.38;;;27.61;29.89
50774;BME280;36745;48.544;8.918;2022-07-18T09:38:47;98021.13;;;27.70;30.02
50774;BME280;36745;48.544;8.918;2022-07-18T09:41:48;98019.41;;;27.81;29.41
50774;BME280;36745;48.544;8.918;2022-07-18T09:44:58;98016.44;;;27.47;28.63
50774;BME280;36745;48.544;8.918;2022-07-18T09:48:01;98026.91;;;27.52;28.10
50774;BME280;36745;48.544;8.918;2022-07-18T09:51:06;98020.72;;;27.66;28.80
50774;BME280;36745;48.544;8.918;2022-07-18T09:54:07;98014.34;;;28.00;29.40
50774;BME280;36745;48.544;8.918;2022-07-18T09:57:09;98007.75;;;28.05;27.52
50774;BME280;36745;48.544;8.918;2022-07-18T10:00:10;98005.16;;;27.94;27.88
50774;BME280;36745;48.544;8.918;2022-07-18T10:03:10;98007.84;;;28.26;28.03
50774;BME280;36745;48.544;8.918;2022-07-18T10:06:11;97999.38;;;28.46;27.60
50774;BME280;36745;48.544;8.918;2022-07-18T10:09:13;97998.81;;;28.69;27.45
50774;BME280;36745;48.544;8.918;2022-07-18T10:12:14;98001.25;;;29.06;27.78
50774;BME280;36745;48.544;8.918;2022-07-18T10:15:15;97999.06;;;29.20;26.38
50774;BME280;36745;48.544;8.918;2022-07-18T10:18:18;98003.81;;;29.17;26.16
50774;BME280;36745;48.544;8.918;2022-07-18T10:21:19;98003.38;;;29.13;25.98
50774;BME280;36745;48.544;8.918;2022-07-18T10:24:21;98002.59;;;29.33;25.63
50774;BME280;36745;48.544;8.918;2022-07-18T10:27:23;97993.03;;;29.52;25.85
50774;BME280;36745;48.544;8.918;2022-07-18T10:30:47;97999.41;;;29.73;25.63
50774;BME280;36745;48.544;8.918;2022-07-18T10:33:48;97987.91;;;29.94;25.17
50774;BME280;36745;48.544;8.918;2022-07-18T10:39:49;98000.66;;;30.51;25.10
50774;BME280;36745;48.544;8.918;2022-07-18T10:50:06;97996.44;;;30.30;24.45
50774;BME280;36745;48.544;8.918;2022-07-18T10:53:06;97997.66;;;30.72;24.63
50774;BME280;36745;48.544;8.918;2022-07-18T10:56:07;97985.88;;;30.91;24.21
50774;BME280;36745;48.544;8.918;2022-07-18T10:59:23;97986.06;;;30.85;23.63
50774;BME280;36745;48.544;8.918;2022-07-18T11:02:33;97984.94;;;30.88;23.64
50774;BME280;36745;48.544;8.918;2022-07-18T11:05:45;97979.03;;;30.63;23.11
50774;BME280;36745;48.544;8.918;2022-07-18T11:08:45;97977.47;;;30.55;23.39
50774;BME280;36745;48.544;8.918;2022-07-18T11:12:38;97978.19;;;30.25;22.10
50774;BME280;36745;48.544;8.918;2022-07-18T11:21:57;97962.88;;;30.00;22.14
50774;BME280;36745;48.544;8.918;2022-07-18T11:24:58;97960.16;;;29.79;22.29
50774;BME280;36745;48.544;8.918;2022-07-18T11:27:58;97958.38;;;30.04;22.74
50774;BME280;36745;48.544;8.918;2022-07-18T11:31:00;97955.00;;;30.13;22.57
50774;BME280;36745;48.544;8.918;2022-07-18T11:34:01;97948.56;;;30.28;22.67
50774;BME280;36745;48.544;8.918;2022-07-18T11:37:02;97956.94;;;30.49;23.14
50774;BME280;36745;48.544;8.918;2022-07-18T11:40:06;97947.06;;;30.35;22.31
50774;BME280;36745;48.544;8.918;2022-07-18T11:43:07;97933.41;;;30.41;22.70
50774;BME280;36745;48.544;8.918;2022-07-18T11:46:10;97944.81;;;30.56;22.62
50774;BME280;36745;48.544;8.918;2022-07-18T11:49:11;97934.94;;;30.72;22.80
50774;BME280;36745;48.544;8.918;2022-07-18T11:52:11;97920.09;;;30.51;22.16
50774;BME280;36745;48.544;8.918;2022-07-18T11:55:12;97918.63;;;30.73;22.51
50774;BME280;36745;48.544;8.918;2022-07-18T11:58:14;97922.38;;;30.98;22.47
50774;BME280;36745;48.544;8.918;2022-07-18T12:01:14;97915.53;;;30.86;21.34
50774;BME280;36745;48.544;8.918;2022-07-18T12:04:20;97907.56;;;30.54;21.55
50774;BME280;36745;48.544;8.918;2022-07-18T12:07:24;97908.69;;;30.28;21.71
50774;BME280;36745;48.544;8.918;2022-07-18T12:10:25;97910.19;;;30.21;21.77
50774;BME280;36745;48.544;8.918;2022-07-18T12:13:26;97908.66;;;30.20;21.39
50774;BME280;36745;48.544;8.918;2022-07-18T12:19:38;97898.06;;;30.44;21.56
50774;BME280;36745;48.544;8.918;2022-07-18T12:23:05;97905.66;;;30.34;21.02
50774;BME280;36745;48.544;8.918;2022-07-18T12:26:07;97897.28;;;30.43;21.38
50774;BME280;36745;48.544;8.918;2022-07-18T12:29:09;97900.72;;;30.42;21.24
50774;BME280;36745;48.544;8.918;2022-07-18T12:32:16;97893.50;;;30.56;21.80
50774;BME280;36745;48.544;8.918;2022-07-18T12:38:19;97892.75;;;30.78;21.36
50774;BME280;36745;48.544;8.918;2022-07-18T12:41:28;97891.56;;;30.96;21.48
50774;BME280;36745;48.544;8.918;2022-07-18T12:44:29;97891.56;;;31.04;21.22
50774;BME280;36745;48.544;8.918;2022-07-18T12:47:30;97889.28;;;31.10;21.32
50774;BME280;36745;48.544;8.918;2022-07-18T12:50:30;97882.25;;;31.11;20.79
50774;BME280;36745;48.544;8.918;2022-07-18T12:53:33;97889.66;;;31.22;21.46
50774;BME280;36745;48.544;8.918;2022-07-18T12:56:34;97885.50;;;31.15;20.68
50774;BME280;36745;48.544;8.918;2022-07-18T12:59:34;97885.09;;;31.19;20.92
50774;BME280;36745;48.544;8.918;2022-07-18T13:02:35;97882.03;;;31.32;21.14
50774;BME280;36745;48.544;8.918;2022-07-18T13:05:36;97881.97;;;31.39;20.80
50774;BME280;36745;48.544;8.918;2022-07-18T13:08:37;97887.16;;;31.33;20.57
50774;BME280;36745;48.544;8.918;2022-07-18T13:11:37;97873.25;;;31.37;20.90
50774;BME280;36745;48.544;8.918;2022-07-18T13:14:40;97876.16;;;31.22;20.80
50774;BME280;36745;48.544;8.918;2022-07-18T13:17:41;97874.22;;;31.32;20.67
50774;BME280;36745;48.544;8.918;2022-07-18T13:20:42;97877.09;;;31.25;20.70
50774;BME280;36745;48.544;8.918;2022-07-18T13:23:42;97867.63;;;31.15;20.40
50774;BME280;36745;48.544;8.918;2022-07-18T13:26:43;97867.56;;;31.30;20.45
50774;BME280;36745;48.544;8.918;2022-07-18T13:29:44;97859.16;;;31.39;20.39
50774;BME280;36745;48.544;8.918;2022-07-18T13:32:44;97856.69;;;31.36;20.27
50774;BME280;36745;48.544;8.918;2022-07-18T13:35:45;97856.06;;;31.45;20.37
50774;BME280;36745;48.544;8.918;2022-07-18T13:38:46;97855.66;;;31.56;20.78
50774;BME280;36745;48.544;8.918;2022-07-18T13:41:47;97853.91;;;31.68;20.49
50774;BME280;36745;48.544;8.918;2022-07-18T13:44:48;97861.28;;;31.79;20.70
50774;BME280;36745;48.544;8.918;2022-07-18T13:47:49;97854.25;;;31.72;20.30
50774;BME280;36745;48.544;8.918;2022-07-18T13:50:49;97847.22;;;31.73;20.36
50774;BME280;36745;48.544;8.918;2022-07-18T13:53:52;97847.06;;;31.71;20.20
50774;BME280;36745;48.544;8.918;2022-07-18T13:56:55;97843.13;;;31.52;20.31
50774;BME280;36745;48.544;8.918;2022-07-18T13:59:55;97842.34;;;31.51;20.10
50774;BME280;36745;48.544;8.918;2022-07-18T14:02:56;97829.88;;;31.39;19.90
50774;BME280;36745;48.544;8.918;2022-07-18T14:05:57;97837.97;;;31.50;20.12
50774;BME280;36745;48.544;8.918;2022-07-18T14:08:57;97837.41;;;31.52;20.17
50774;BME280;36745;48.544;8.918;2022-07-18T14:11:58;97828.56;;;31.72;20.65
50774;BME280;36745;48.544;8.918;2022-07-18T14:14:58;97828.13;;;31.83;20.24
50774;BME280;36745;48.544;8.918;2022-07-18T14:17:58;97830.50;;;31.62;19.87
50774;BME280;36745;48.544;8.918;2022-07-18T14:20:59;97827.94;;;31.41;19.83
50774;BME280;36745;48.544;8.918;2022-07-18T14:24:00;97820.03;;;31.25;20.02
50774;BME280;36745;48.544;8.918;2022-07-18T14:27:03;97822.25;;;31.34;20.24
50774;BME280;36745;48.544;8.918;2022-07-18T14:30:05;97823.78;;;31.35;20.41
50774;BME280;36745;48.544;8.918;2022-07-18T14:33:06;97819.19;;;31.39;20.21
50774;BME280;36745;48.544;8.918;2022-07-18T14:36:09;97819.91;;;31.55;20.35
50774;BME280;36745;48.544;8.918;2022-07-18T14:39:13;97814.50;;;31.67;20.44
50774;BME280;36745;48.544;8.918;2022-07-18T14:42:13;97816.78;;;31.68;20.29
50774;BME280;36745;48.544;8.918;2022-07-18T14:45:17;97811.44;;;31.72;20.32
50774;BME280;36745;48.544;8.918;2022-07-18T14:48:18;97804.22;;;31.71;20.59
50774;BME280;36745;48.544;8.918;2022-07-18T14:51:18;97800.53;;;31.78;20.74
50774;BME280;36745;48.544;8.918;2022-07-18T14:54:19;97800.44;;;31.61;20.07
50774;BME280;36745;48.544;8.918;2022-07-18T14:57:20;97800.06;;;31.65;20.75
50774;BME280;36745;48.544;8.918;2022-07-18T15:00:20;97799.25;;;31.72;20.59
50774;BME280;36745;48.544;8.918;2022-07-18T15:03:20;97794.31;;;31.72;20.42
50774;BME280;36745;48.544;8.918;2022-07-18T15:06:21;97805.72;;;31.72;20.07
50774;BME280;36745;48.544;8.918;2022-07-18T15:09:21;97800.63;;;31.71;20.20
50774;BME280;36745;48.544;8.918;2022-07-18T15:12:22;97790.31;;;31.75;20.30
50774;BME280;36745;48.544;8.918;2022-07-18T15:15:22;97794.72;;;31.61;19.98
50774;BME280;36745;48.544;8.918;2022-07-18T15:18:23;97792.94;;;31.41;19.55
50774;BME280;36745;48.544;8.918;2022-07-18T15:21:23;97791.94;;;31.54;20.24
50774;BME280;36745;48.544;8.918;2022-07-18T15:24:24;97786.56;;;31.65;20.40
50774;BME280;36745;48.544;8.918;2022-07-18T15:27:24;97774.53;;;31.67;20.23
50774;BME280;36745;48.544;8.918;2022-07-18T15:30:25;97774.72;;;31.69;20.50
50774;BME280;36745;48.544;8.918;2022-07-18T15:33:25;97775.19;;;31.50;20.03
50774;BME280;36745;48.544;8.918;2022-07-18T15:36:26;97773.25;;;31.20;19.87
50774;BME280;36745;48.544;8.918;2022-07-18T15:39:26;97773.66;;;31.17;20.09
50774;BME280;36745;48.544;8.918;2022-07-18T15:42:26;97774.72;;;31.29;20.18
50774;BME280;36745;48.544;8.918;2022-07-18T15:45:27;97769.97;;;31.31;20.13
50774;BME280;36745;48.544;8.918;2022-07-18T15:48:28;97760.63;;;31.38;19.98
50774;BME280;36745;48.544;8.918;2022-07-18T15:51:28;97765.06;;;31.24;19.92
50774;BME280;36745;48.544;8.918;2022-07-18T15:54:30;97761.63;;;31.26;20.08
50774;BME280;36745;48.544;8.918;2022-07-18T15:57:30;97760.31;;;31.27;19.97
50774;BME280;36745;48.544;8.918;2022-07-18T16:00:31;97760.31;;;31.27;19.95
50774;BME280;36745;48.544;8.918;2022-07-18T16:03:31;97751.47;;;31.40;20.01
50774;BME280;36745;48.544;8.918;2022-07-18T16:06:32;97744.00;;;31.44;20.00
50774;BME280;36745;48.544;8.918;2022-07-18T16:09:33;97745.06;;;31.32;19.83
50774;BME280;36745;48.544;8.918;2022-07-18T16:12:33;97743.97;;;31.20;19.98
50774;BME280;36745;48.544;8.918;2022-07-18T16:15:34;97745.91;;;31.09;19.94
50774;BME280;36745;48.544;8.918;2022-07-18T16:18:34;97744.03;;;31.04;20.16
50774;BME280;36745;48.544;8.918;2022-07-18T16:21:36;97744.66;;;30.88;20.10
50774;BME280;36745;48.544;8.918;2022-07-18T16:24:43;97743.94;;;30.72;20.21
50774;BME280;36745;48.544;8.918;2022-07-18T16:27:45;97737.28;;;30.77;20.27